sensor_id;sensor_type;location;lat;lon;timestamp;P1;durP1;ratioP1;P2;durP2;ratioP2
34924;SDS011;21130;51.728;8.748;2023-02-28T00:01:06;4.40;;;3.40;;
34924;SDS011;21130;51.728;8.748;2023-02-28T00:03:33;4.25;;;3.70;;
34924;SDS011;21130;51.728;8.748;2023-02-28T00:06:00;6.65;;;3.92;;
34924;SDS011;21130;51.728;8.748;2023-02-28T00:08:28;5.47;;;3.80;;
34924;SDS011;21130;51.728;8.748;2023-02-28T00:10:55;4.00;;;3.40;;
34924;SDS011;21130;51.728;8.748;2023-02-28T00:13:21;4.05;;;3.33;;
34924;SDS011;21130;51.728;8.748;2023-02-28T00:15:57;3.33;;;2.90;;
34924;SDS011;21130;51.728;8.748;2023-02-28T00:18:24;4.43;;;3.50;;
34924;SDS011;21130;51.728;8.748;2023-02-28T00:20:51;5.97;;;3.83;;
34924;SDS011;21130;51.728;8.748;2023-02-28T00:23:17;5.10;;;3.50;;
34924;SDS011;21130;51.728;8.748;2023-02-28T00:25:46;4.90;;;3.78;;
34924;SDS011;21130;51.728;8.748;2023-02-28T00:28:12;4.32;;;3.28;;
34924;SDS011;21130;51.728;8.748;2023-02-28T00:30:39;4.60;;;3.70;;
34924;SDS011;21130;51.728;8.748;2023-02-28T00:33:05;5.15;;;3.33;;
34924;SDS011;21130;51.728;8.748;2023-02-28T00:35:31;5.60;;;3.20;;
34924;SDS011;21130;51.728;8.748;2023-02-28T00:37:58;3.72;;;3.30;;
34924;SDS011;21130;51.728;8.748;2023-02-28T00:40:25;5.07;;;3.13;;
34924;SDS011;21130;51.728;8.748;2023-02-28T00:42:53;4.13;;;3.10;;
34924;SDS011;21130;51.728;8.748;2023-02-28T00:45:20;3.45;;;3.13;;
34924;SDS011;21130;51.728;8.748;2023-02-28T00:47:46;6.15;;;3.30;;
34924;SDS011;21130;51.728;8.748;2023-02-28T00:50:15;5.00;;;3.00;;
34924;SDS011;21130;51.728;8.748;2023-02-28T00:52:42;3.92;;;3.10;;
34924;SDS011;21130;51.728;8.748;2023-02-28T00:55:09;3.60;;;3.30;;
34924;SDS011;21130;51.728;8.748;2023-02-28T00:57:35;4.72;;;3.28;;
34924;SDS011;21130;51.728;8.748;2023-02-28T01:00:04;5.47;;;3.45;;
34924;SDS011;21130;51.728;8.748;2023-02-28T01:02:32;5.68;;;3.15;;
34924;SDS011;21130;51.728;8.748;2023-02-28T01:04:59;3.83;;;3.30;;
34924;SDS011;21130;51.728;8.748;2023-02-28T01:07:26;4.32;;;3.67;;
34924;SDS011;21130;51.728;8.748;2023-02-28T01:09:52;4.10;;;3.65;;
34924;SDS011;21130;51.728;8.748;2023-02-28T01:12:18;4.65;;;3.35;;
34924;SDS011;21130;51.728;8.748;2023-02-28T01:14:45;5.32;;;3.83;;
34924;SDS011;21130;51.728;8.748;2023-02-28T01:17:13;6.03;;;3.67;;
34924;SDS011;21130;51.728;8.748;2023-02-28T01:19:39;5.53;;;3.70;;
34924;SDS011;21130;51.728;8.748;2023-02-28T01:22:06;4.40;;;3.15;;
34924;SDS011;21130;51.728;8.748;2023-02-28T01:24:32;5.10;;;4.38;;
34924;SDS011;21130;51.728;8.748;2023-02-28T01:26:59;5.80;;;4.35;;
34924;SDS011;21130;51.728;8.748;2023-02-28T01:29:25;5.93;;;4.25;;
34924;SDS011;21130;51.728;8.748;2023-02-28T01:31:52;5.38;;;3.85;;
34924;SDS011;21130;51.728;8.748;2023-02-28T01:34:20;4.75;;;4.05;;
34924;SDS011;21130;51.728;8.748;2023-02-28T01:36:46;5.53;;;4.07;;
34924;SDS011;21130;51.728;8.748;2023-02-28T01:39:13;5.93;;;4.32;;
34924;SDS011;21130;51.728;8.748;2023-02-28T01:41:39;4.60;;;3.92;;
34924;SDS011;21130;51.728;8.748;2023-02-28T01:44:07;5.35;;;4.63;;
34924;SDS011;21130;51.728;8.748;2023-02-28T01:47:11;5.78;;;3.55;;
34924;SDS011;21130;51.728;8.748;2023-02-28T01:49:40;6.18;;;4.07;;
34924;SDS011;21130;51.728;8.748;2023-02-28T01:52:06;6.03;;;4.25;;
34924;SDS011;21130;51.728;8.748;2023-02-28T01:54:34;5.88;;;4.15;;
34924;SDS011;21130;51.728;8.748;2023-02-28T01:57:01;7.53;;;4.10;;
34924;SDS011;21130;51.728;8.748;2023-02-28T01:59:31;4.78;;;4.13;;
34924;SDS011;21130;51.728;8.748;2023-02-28T02:02:02;5.28;;;4.10;;
34924;SDS011;21130;51.728;8.748;2023-02-28T02:04:32;6.05;;;3.97;;
34924;SDS011;21130;51.728;8.748;2023-02-28T02:07:04;4.10;;;3.70;;
34924;SDS011;21130;51.728;8.748;2023-02-28T02:09:31;6.57;;;4.57;;
34924;SDS011;21130;51.728;8.748;2023-02-28T02:11:58;7.45;;;4.78;;
34924;SDS011;21130;51.728;8.748;2023-02-28T02:14:35;5.60;;;4.30;;
34924;SDS011;21130;51.728;8.748;2023-02-28T02:17:14;6.43;;;3.78;;
34924;SDS011;21130;51.728;8.748;2023-02-28T02:22:58;4.55;;;3.70;;
34924;SDS011;21130;51.728;8.748;2023-02-28T02:25:41;3.70;;;3.08;;
34924;SDS011;21130;51.728;8.748;2023-02-28T02:31:27;3.53;;;3.20;;
34924;SDS011;21130;51.728;8.748;2023-02-28T02:34:05;4.55;;;3.38;;
34924;SDS011;21130;51.728;8.748;2023-02-28T02:36:51;4.88;;;3.33;;
34924;SDS011;21130;51.728;8.748;2023-02-28T02:39:26;3.65;;;3.35;;
34924;SDS011;21130;51.728;8.748;2023-02-28T02:41:58;4.30;;;3.50;;
34924;SDS011;21130;51.728;8.748;2023-02-28T02:44:28;4.60;;;3.50;;
34924;SDS011;21130;51.728;8.748;2023-02-28T02:47:03;3.80;;;3.30;;
34924;SDS011;21130;51.728;8.748;2023-02-28T02:49:36;3.88;;;3.42;;
34924;SDS011;21130;51.728;8.748;2023-02-28T02:52:05;3.55;;;2.95;;
34924;SDS011;21130;51.728;8.748;2023-02-28T02:54:35;4.72;;;3.50;;
34924;SDS011;21130;51.728;8.748;2023-02-28T02:57:04;3.95;;;3.50;;
34924;SDS011;21130;51.728;8.748;2023-02-28T02:59:34;4.43;;;3.65;;
34924;SDS011;21130;51.728;8.748;2023-02-28T03:02:04;4.80;;;3.38;;
34924;SDS011;21130;51.728;8.748;2023-02-28T03:04:40;3.83;;;3.50;;
34924;SDS011;21130;51.728;8.748;2023-02-28T03:07:09;5.40;;;3.50;;
34924;SDS011;21130;51.728;8.748;2023-02-28T03:09:36;3.25;;;2.95;;
34924;SDS011;21130;51.728;8.748;2023-02-28T03:12:02;4.05;;;3.45;;
34924;SDS011;21130;51.728;8.748;2023-02-28T03:14:35;3.97;;;3.08;;
34924;SDS011;21130;51.728;8.748;2023-02-28T03:17:17;3.78;;;3.17;;
34924;SDS011;21130;51.728;8.748;2023-02-28T03:19:58;6.78;;;3.72;;
34924;SDS011;21130;51.728;8.748;2023-02-28T03:25:29;5.15;;;3.47;;
34924;SDS011;21130;51.728;8.748;2023-02-28T03:28:04;3.70;;;3.40;;
34924;SDS011;21130;51.728;8.748;2023-02-28T03:30:39;4.82;;;3.50;;
34924;SDS011;21130;51.728;8.748;2023-02-28T03:33:11;3.65;;;3.35;;
34924;SDS011;21130;51.728;8.748;2023-02-28T03:35:44;3.55;;;3.25;;
34924;SDS011;21130;51.728;8.748;2023-02-28T03:38:15;3.53;;;3.22;;
34924;SDS011;21130;51.728;8.748;2023-02-28T03:40:47;4.55;;;3.60;;
34924;SDS011;21130;51.728;8.748;2023-02-28T03:43:18;5.30;;;3.45;;
34924;SDS011;21130;51.728;8.748;2023-02-28T03:45:48;4.82;;;3.75;;
34924;SDS011;21130;51.728;8.748;2023-02-28T03:48:18;5.50;;;3.50;;
34924;SDS011;21130;51.728;8.748;2023-02-28T03:50:51;4.68;;;3.10;;
34924;SDS011;21130;51.728;8.748;2023-02-28T03:53:22;5.07;;;3.33;;
34924;SDS011;21130;51.728;8.748;2023-02-28T03:55:54;4.20;;;3.75;;
34924;SDS011;21130;51.728;8.748;2023-02-28T03:58:24;4.40;;;3.40;;
34924;SDS011;21130;51.728;8.748;2023-02-28T04:00:59;4.10;;;3.40;;
34924;SDS011;21130;51.728;8.748;2023-02-28T04:03:33;4.57;;;3.40;;
34924;SDS011;21130;51.728;8.748;2023-02-28T04:06:01;4.85;;;3.30;;
34924;SDS011;21130;51.728;8.748;2023-02-28T04:08:28;4.53;;;3.55;;
34924;SDS011;21130;51.728;8.748;2023-02-28T04:10:56;3.20;;;2.90;;
34924;SDS011;21130;51.728;8.748;2023-02-28T04:13:27;3.45;;;3.10;;
34924;SDS011;21130;51.728;8.748;2023-02-28T04:15:54;6.25;;;3.45;;
34924;SDS011;21130;51.728;8.748;2023-02-28T04:18:20;3.25;;;2.90;;
34924;SDS011;21130;51.728;8.748;2023-02-28T04:20:47;4.13;;;3.80;;
34924;SDS011;21130;51.728;8.748;2023-02-28T04:23:14;5.82;;;3.25;;
34924;SDS011;21130;51.728;8.748;2023-02-28T04:25:41;3.13;;;2.80;;
34924;SDS011;21130;51.728;8.748;2023-02-28T04:28:07;4.30;;;3.15;;
34924;SDS011;21130;51.728;8.748;2023-02-28T04:30:34;3.80;;;3.30;;
34924;SDS011;21130;51.728;8.748;2023-02-28T04:33:01;5.93;;;3.33;;
34924;SDS011;21130;51.728;8.748;2023-02-28T04:35:27;4.28;;;3.47;;
34924;SDS011;21130;51.728;8.748;2023-02-28T04:37:54;5.80;;;3.35;;
34924;SDS011;21130;51.728;8.748;2023-02-28T04:40:22;5.10;;;3.10;;
34924;SDS011;21130;51.728;8.748;2023-02-28T04:42:48;3.15;;;2.85;;
34924;SDS011;21130;51.728;8.748;2023-02-28T04:45:15;3.67;;;3.10;;
34924;SDS011;21130;51.728;8.748;2023-02-28T04:47:42;2.92;;;2.67;;
34924;SDS011;21130;51.728;8.748;2023-02-28T04:50:09;3.75;;;2.85;;
34924;SDS011;21130;51.728;8.748;2023-02-28T04:52:35;5.57;;;3.03;;
34924;SDS011;21130;51.728;8.748;2023-02-28T04:55:02;3.78;;;3.47;;
34924;SDS011;21130;51.728;8.748;2023-02-28T04:57:31;4.00;;;2.90;;
34924;SDS011;21130;51.728;8.748;2023-02-28T04:59:58;4.95;;;2.83;;
34924;SDS011;21130;51.728;8.748;2023-02-28T05:02:24;4.28;;;3.10;;
34924;SDS011;21130;51.728;8.748;2023-02-28T05:04:51;3.00;;;2.70;;
34924;SDS011;21130;51.728;8.748;2023-02-28T05:07:17;3.55;;;3.25;;
34924;SDS011;21130;51.728;8.748;2023-02-28T05:09:44;2.83;;;2.63;;
34924;SDS011;21130;51.728;8.748;2023-02-28T05:12:10;5.20;;;3.00;;
34924;SDS011;21130;51.728;8.748;2023-02-28T05:14:38;4.35;;;2.92;;
34924;SDS011;21130;51.728;8.748;2023-02-28T05:17:04;3.67;;;2.90;;
34924;SDS011;21130;51.728;8.748;2023-02-28T05:19:31;3.05;;;2.72;;
34924;SDS011;21130;51.728;8.748;2023-02-28T05:21:57;2.97;;;2.78;;
34924;SDS011;21130;51.728;8.748;2023-02-28T05:24:24;3.40;;;3.10;;
34924;SDS011;21130;51.728;8.748;2023-02-28T05:26:52;3.05;;;2.80;;
34924;SDS011;21130;51.728;8.748;2023-02-28T05:29:19;3.00;;;2.70;;
34924;SDS011;21130;51.728;8.748;2023-02-28T05:31:47;3.42;;;2.67;;
34924;SDS011;21130;51.728;8.748;2023-02-28T05:34:14;3.83;;;3.20;;
34924;SDS011;21130;51.728;8.748;2023-02-28T05:36:41;3.65;;;2.80;;
34924;SDS011;21130;51.728;8.748;2023-02-28T05:39:08;3.15;;;2.90;;
34924;SDS011;21130;51.728;8.748;2023-02-28T05:41:38;4.43;;;3.40;;
34924;SDS011;21130;51.728;8.748;2023-02-28T05:44:06;24.92;;;11.85;;
34924;SDS011;21130;51.728;8.748;2023-02-28T05:46:32;8.70;;;5.85;;
34924;SDS011;21130;51.728;8.748;2023-02-28T05:49:00;7.80;;;5.22;;
34924;SDS011;21130;51.728;8.748;2023-02-28T05:51:27;7.53;;;4.63;;
34924;SDS011;21130;51.728;8.748;2023-02-28T05:53:54;5.22;;;3.97;;
34924;SDS011;21130;51.728;8.748;2023-02-28T05:56:21;5.20;;;3.42;;
34924;SDS011;21130;51.728;8.748;2023-02-28T05:58:48;3.15;;;2.85;;
34924;SDS011;21130;51.728;8.748;2023-02-28T06:01:22;3.30;;;2.63;;
34924;SDS011;21130;51.728;8.748;2023-02-28T06:03:56;3.75;;;3.22;;
34924;SDS011;21130;51.728;8.748;2023-02-28T06:06:24;4.03;;;2.55;;
34924;SDS011;21130;51.728;8.748;2023-02-28T06:08:50;2.97;;;2.78;;
34924;SDS011;21130;51.728;8.748;2023-02-28T06:11:16;2.80;;;2.60;;
34924;SDS011;21130;51.728;8.748;2023-02-28T06:13:44;3.80;;;3.50;;
34924;SDS011;21130;51.728;8.748;2023-02-28T06:16:11;5.25;;;2.72;;
34924;SDS011;21130;51.728;8.748;2023-02-28T06:18:38;3.42;;;3.13;;
34924;SDS011;21130;51.728;8.748;2023-02-28T06:21:04;4.57;;;3.00;;
34924;SDS011;21130;51.728;8.748;2023-02-28T06:23:32;6.05;;;3.50;;
34924;SDS011;21130;51.728;8.748;2023-02-28T06:25:59;3.75;;;2.95;;
34924;SDS011;21130;51.728;8.748;2023-02-28T06:28:25;3.03;;;2.47;;
34924;SDS011;21130;51.728;8.748;2023-02-28T06:30:52;3.42;;;3.13;;
34924;SDS011;21130;51.728;8.748;2023-02-28T06:33:18;5.10;;;3.60;;
34924;SDS011;21130;51.728;8.748;2023-02-28T06:35:46;4.38;;;3.97;;
34924;SDS011;21130;51.728;8.748;2023-02-28T06:38:12;4.43;;;3.42;;
34924;SDS011;21130;51.728;8.748;2023-02-28T06:40:40;3.75;;;3.45;;
34924;SDS011;21130;51.728;8.748;2023-02-28T06:43:07;6.03;;;3.28;;
34924;SDS011;21130;51.728;8.748;2023-02-28T06:45:33;4.32;;;3.67;;
34924;SDS011;21130;51.728;8.748;2023-02-28T06:48:00;5.22;;;4.22;;
34924;SDS011;21130;51.728;8.748;2023-02-28T06:50:26;8.35;;;4.32;;
34924;SDS011;21130;51.728;8.748;2023-02-28T06:52:54;6.38;;;4.70;;
34924;SDS011;21130;51.728;8.748;2023-02-28T06:55:21;7.95;;;5.00;;
34924;SDS011;21130;51.728;8.748;2023-02-28T06:57:48;11.30;;;6.15;;
34924;SDS011;21130;51.728;8.748;2023-02-28T07:00:16;6.13;;;5.32;;
34924;SDS011;21130;51.728;8.748;2023-02-28T07:02:43;7.28;;;5.43;;
34924;SDS011;21130;51.728;8.748;2023-02-28T07:05:09;8.20;;;5.53;;
34924;SDS011;21130;51.728;8.748;2023-02-28T07:07:36;7.93;;;6.28;;
34924;SDS011;21130;51.728;8.748;2023-02-28T07:10:05;8.60;;;5.95;;
34924;SDS011;21130;51.728;8.748;2023-02-28T07:12:32;8.15;;;5.90;;
34924;SDS011;21130;51.728;8.748;2023-02-28T07:15:00;7.68;;;5.78;;
34924;SDS011;21130;51.728;8.748;2023-02-28T07:17:26;6.20;;;5.60;;
34924;SDS011;21130;51.728;8.748;2023-02-28T07:19:53;5.75;;;5.05;;
34924;SDS011;21130;51.728;8.748;2023-02-28T07:22:19;5.82;;;5.07;;
34924;SDS011;21130;51.728;8.748;2023-02-28T07:24:46;7.05;;;4.70;;
34924;SDS011;21130;51.728;8.748;2023-02-28T07:27:12;6.82;;;4.47;;
34924;SDS011;21130;51.728;8.748;2023-02-28T07:29:50;8.15;;;5.40;;
34924;SDS011;21130;51.728;8.748;2023-02-28T07:32:18;6.03;;;4.93;;
34924;SDS011;21130;51.728;8.748;2023-02-28T07:34:45;7.07;;;5.13;;
34924;SDS011;21130;51.728;8.748;2023-02-28T07:37:11;6.97;;;4.68;;
34924;SDS011;21130;51.728;8.748;2023-02-28T07:39:38;6.85;;;5.00;;
34924;SDS011;21130;51.728;8.748;2023-02-28T07:42:06;6.03;;;4.53;;
34924;SDS011;21130;51.728;8.748;2023-02-28T07:44:35;5.53;;;4.65;;
34924;SDS011;21130;51.728;8.748;2023-02-28T07:47:05;5.88;;;4.82;;
34924;SDS011;21130;51.728;8.748;2023-02-28T07:49:33;5.85;;;4.60;;
34924;SDS011;21130;51.728;8.748;2023-02-28T07:52:00;5.65;;;4.13;;
34924;SDS011;21130;51.728;8.748;2023-02-28T07:54:27;4.65;;;4.05;;
34924;SDS011;21130;51.728;8.748;2023-02-28T07:56:54;5.88;;;4.40;;
34924;SDS011;21130;51.728;8.748;2023-02-28T07:59:20;5.85;;;4.60;;
34924;SDS011;21130;51.728;8.748;2023-02-28T08:01:46;5.55;;;4.70;;
34924;SDS011;21130;51.728;8.748;2023-02-28T08:04:15;5.38;;;4.88;;
34924;SDS011;21130;51.728;8.748;2023-02-28T08:06:43;6.07;;;4.72;;
34924;SDS011;21130;51.728;8.748;2023-02-28T08:09:10;6.80;;;5.43;;
34924;SDS011;21130;51.728;8.748;2023-02-28T08:11:36;8.13;;;5.68;;
34924;SDS011;21130;51.728;8.748;2023-02-28T08:14:03;9.70;;;6.18;;
34924;SDS011;21130;51.728;8.748;2023-02-28T08:16:29;8.10;;;6.90;;
34924;SDS011;21130;51.728;8.748;2023-02-28T08:18:55;10.68;;;7.10;;
34924;SDS011;21130;51.728;8.748;2023-02-28T08:21:22;10.93;;;7.38;;
34924;SDS011;21130;51.728;8.748;2023-02-28T08:23:50;10.35;;;7.45;;
34924;SDS011;21130;51.728;8.748;2023-02-28T08:26:18;11.75;;;8.20;;
34924;SDS011;21130;51.728;8.748;2023-02-28T08:28:45;8.82;;;6.32;;
34924;SDS011;21130;51.728;8.748;2023-02-28T08:31:12;9.18;;;4.40;;
34924;SDS011;21130;51.728;8.748;2023-02-28T08:33:41;7.70;;;5.10;;
34924;SDS011;21130;51.728;8.748;2023-02-28T08:36:09;6.95;;;4.88;;
34924;SDS011;21130;51.728;8.748;2023-02-28T08:38:37;7.68;;;4.82;;
34924;SDS011;21130;51.728;8.748;2023-02-28T08:41:06;7.22;;;4.35;;
34924;SDS011;21130;51.728;8.748;2023-02-28T08:43:34;7.10;;;4.60;;
34924;SDS011;21130;51.728;8.748;2023-02-28T08:46:00;6.63;;;3.97;;
34924;SDS011;21130;51.728;8.748;2023-02-28T08:48:29;7.80;;;5.45;;
34924;SDS011;21130;51.728;8.748;2023-02-28T08:50:57;5.45;;;3.97;;
34924;SDS011;21130;51.728;8.748;2023-02-28T08:53:24;5.68;;;4.65;;
34924;SDS011;21130;51.728;8.748;2023-02-28T08:55:57;4.35;;;3.28;;
34924;SDS011;21130;51.728;8.748;2023-02-28T08:58:26;5.90;;;3.88;;
34924;SDS011;21130;51.728;8.748;2023-02-28T09:00:53;4.50;;;3.58;;
34924;SDS011;21130;51.728;8.748;2023-02-28T09:03:20;4.40;;;3.20;;
34924;SDS011;21130;51.728;8.748;2023-02-28T09:05:54;4.75;;;3.30;;
34924;SDS011;21130;51.728;8.748;2023-02-28T09:08:22;3.90;;;2.78;;
34924;SDS011;21130;51.728;8.748;2023-02-28T09:10:49;3.67;;;2.80;;
34924;SDS011;21130;51.728;8.748;2023-02-28T09:13:17;3.42;;;2.42;;
34924;SDS011;21130;51.728;8.748;2023-02-28T09:15:45;3.45;;;2.30;;
34924;SDS011;21130;51.728;8.748;2023-02-28T09:18:12;3.75;;;2.83;;
34924;SDS011;21130;51.728;8.748;2023-02-28T09:20:39;4.68;;;3.67;;
34924;SDS011;21130;51.728;8.748;2023-02-28T09:23:06;9.30;;;6.72;;
34924;SDS011;21130;51.728;8.748;2023-02-28T09:25:33;5.78;;;4.40;;
34924;SDS011;21130;51.728;8.748;2023-02-28T09:28:01;4.13;;;3.03;;
34924;SDS011;21130;51.728;8.748;2023-02-28T09:30:27;3.63;;;3.22;;
34924;SDS011;21130;51.728;8.748;2023-02-28T09:32:55;3.63;;;2.50;;
34924;SDS011;21130;51.728;8.748;2023-02-28T09:35:23;4.75;;;2.50;;
34924;SDS011;21130;51.728;8.748;2023-02-28T09:37:51;5.40;;;3.47;;
34924;SDS011;21130;51.728;8.748;2023-02-28T09:40:18;7.70;;;4.25;;
34924;SDS011;21130;51.728;8.748;2023-02-28T09:42:47;2.95;;;2.28;;
34924;SDS011;21130;51.728;8.748;2023-02-28T09:45:19;3.13;;;2.60;;
34924;SDS011;21130;51.728;8.748;2023-02-28T09:47:50;3.72;;;2.15;;
34924;SDS011;21130;51.728;8.748;2023-02-28T09:50:23;3.67;;;2.00;;
34924;SDS011;21130;51.728;8.748;2023-02-28T09:52:58;3.15;;;2.28;;
34924;SDS011;21130;51.728;8.748;2023-02-28T09:55:26;2.70;;;2.20;;
34924;SDS011;21130;51.728;8.748;2023-02-28T09:57:56;3.13;;;2.35;;
34924;SDS011;21130;51.728;8.748;2023-02-28T10:00:27;3.28;;;2.17;;
34924;SDS011;21130;51.728;8.748;2023-02-28T10:03:06;5.00;;;2.47;;
34924;SDS011;21130;51.728;8.748;2023-02-28T10:05:54;3.10;;;2.10;;
34924;SDS011;21130;51.728;8.748;2023-02-28T10:08:50;3.53;;;2.60;;
34924;SDS011;21130;51.728;8.748;2023-02-28T10:11:23;3.13;;;2.83;;
34924;SDS011;21130;51.728;8.748;2023-02-28T10:13:52;3.20;;;2.40;;
34924;SDS011;21130;51.728;8.748;2023-02-28T10:16:27;2.90;;;2.55;;
34924;SDS011;21130;51.728;8.748;2023-02-28T10:19:01;5.18;;;3.08;;
34924;SDS011;21130;51.728;8.748;2023-02-28T10:21:34;3.63;;;2.67;;
34924;SDS011;21130;51.728;8.748;2023-02-28T10:24:03;3.40;;;2.63;;
34924;SDS011;21130;51.728;8.748;2023-02-28T10:26:38;4.75;;;2.80;;
34924;SDS011;21130;51.728;8.748;2023-02-28T10:29:09;4.03;;;2.78;;
34924;SDS011;21130;51.728;8.748;2023-02-28T10:31:36;4.03;;;3.00;;
34924;SDS011;21130;51.728;8.748;2023-02-28T10:34:05;3.17;;;2.78;;
34924;SDS011;21130;51.728;8.748;2023-02-28T10:36:33;3.72;;;2.58;;
34924;SDS011;21130;51.728;8.748;2023-02-28T10:39:00;4.30;;;2.50;;
34924;SDS011;21130;51.728;8.748;2023-02-28T10:41:27;3.83;;;2.90;;
34924;SDS011;21130;51.728;8.748;2023-02-28T10:44:17;3.72;;;2.65;;
34924;SDS011;21130;51.728;8.748;2023-02-28T10:46:47;5.95;;;2.38;;
34924;SDS011;21130;51.728;8.748;2023-02-28T10:49:17;3.03;;;2.70;;
34924;SDS011;21130;51.728;8.748;2023-02-28T10:51:47;4.07;;;2.88;;
34924;SDS011;21130;51.728;8.748;2023-02-28T10:54:18;3.33;;;2.70;;
34924;SDS011;21130;51.728;8.748;2023-02-28T10:56:54;3.47;;;2.80;;
34924;SDS011;21130;51.728;8.748;2023-02-28T10:59:32;5.22;;;3.13;;
34924;SDS011;21130;51.728;8.748;2023-02-28T11:01:59;3.55;;;2.80;;
34924;SDS011;21130;51.728;8.748;2023-02-28T11:04:33;3.25;;;2.95;;
34924;SDS011;21130;51.728;8.748;2023-02-28T11:07:05;4.07;;;2.75;;
34924;SDS011;21130;51.728;8.748;2023-02-28T11:09:44;4.68;;;2.97;;
34924;SDS011;21130;51.728;8.748;2023-02-28T11:12:19;2.70;;;2.50;;
34924;SDS011;21130;51.728;8.748;2023-02-28T11:14:49;4.32;;;3.20;;
34924;SDS011;21130;51.728;8.748;2023-02-28T11:17:19;4.82;;;2.67;;
34924;SDS011;21130;51.728;8.748;2023-02-28T11:19:49;5.13;;;2.83;;
34924;SDS011;21130;51.728;8.748;2023-02-28T11:22:21;8.27;;;5.72;;
34924;SDS011;21130;51.728;8.748;2023-02-28T11:24:50;3.83;;;3.35;;
34924;SDS011;21130;51.728;8.748;2023-02-28T11:33:01;4.60;;;2.60;;
34924;SDS011;21130;51.728;8.748;2023-02-28T11:35:44;3.15;;;2.50;;
34924;SDS011;21130;51.728;8.748;2023-02-28T11:38:14;3.35;;;3.00;;
34924;SDS011;21130;51.728;8.748;2023-02-28T11:40:42;2.70;;;2.50;;
34924;SDS011;21130;51.728;8.748;2023-02-28T11:43:19;4.50;;;2.50;;
34924;SDS011;21130;51.728;8.748;2023-02-28T11:45:57;4.18;;;2.35;;
34924;SDS011;21130;51.728;8.748;2023-02-28T11:48:32;8.10;;;3.53;;
34924;SDS011;21130;51.728;8.748;2023-02-28T11:51:06;4.05;;;2.60;;
34924;SDS011;21130;51.728;8.748;2023-02-28T11:53:45;3.65;;;2.90;;
34924;SDS011;21130;51.728;8.748;2023-02-28T11:56:23;2.90;;;2.45;;
34924;SDS011;21130;51.728;8.748;2023-02-28T11:58:59;3.00;;;2.70;;
34924;SDS011;21130;51.728;8.748;2023-02-28T12:01:57;3.05;;;2.30;;
34924;SDS011;21130;51.728;8.748;2023-02-28T12:04:38;3.00;;;2.70;;
34924;SDS011;21130;51.728;8.748;2023-02-28T12:07:15;3.17;;;2.33;;
34924;SDS011;21130;51.728;8.748;2023-02-28T12:09:55;2.70;;;2.50;;
34924;SDS011;21130;51.728;8.748;2023-02-28T12:12:30;2.72;;;2.40;;
34924;SDS011;21130;51.728;8.748;2023-02-28T12:15:06;2.33;;;2.10;;
34924;SDS011;21130;51.728;8.748;2023-02-28T12:17:51;2.72;;;2.45;;
34924;SDS011;21130;51.728;8.748;2023-02-28T12:20:30;2.78;;;2.17;;
34924;SDS011;21130;51.728;8.748;2023-02-28T12:23:14;2.80;;;2.30;;
34924;SDS011;21130;51.728;8.748;2023-02-28T12:25:58;4.15;;;2.30;;
34924;SDS011;21130;51.728;8.748;2023-02-28T12:28:33;3.33;;;2.67;;
34924;SDS011;21130;51.728;8.748;2023-02-28T12:31:04;3.58;;;2.83;;
34924;SDS011;21130;51.728;8.748;2023-02-28T12:33:36;3.13;;;2.03;;
34924;SDS011;21130;51.728;8.748;2023-02-28T12:36:10;2.08;;;1.88;;
34924;SDS011;21130;51.728;8.748;2023-02-28T12:38:43;2.10;;;1.90;;
34924;SDS011;21130;51.728;8.748;2023-02-28T12:41:15;3.25;;;2.35;;
34924;SDS011;21130;51.728;8.748;2023-02-28T12:43:46;2.65;;;2.20;;
34924;SDS011;21130;51.728;8.748;2023-02-28T12:46:17;2.67;;;2.25;;
34924;SDS011;21130;51.728;8.748;2023-02-28T12:48:48;4.03;;;2.50;;
34924;SDS011;21130;51.728;8.748;2023-02-28T12:51:18;2.60;;;2.13;;
34924;SDS011;21130;51.728;8.748;2023-02-28T12:53:49;3.10;;;2.70;;
34924;SDS011;21130;51.728;8.748;2023-02-28T12:56:29;3.97;;;2.70;;
34924;SDS011;21130;51.728;8.748;2023-02-28T12:59:05;3.47;;;2.53;;
34924;SDS011;21130;51.728;8.748;2023-02-28T13:01:46;3.33;;;2.28;;
34924;SDS011;21130;51.728;8.748;2023-02-28T13:04:38;4.30;;;2.63;;
34924;SDS011;21130;51.728;8.748;2023-02-28T13:07:31;4.07;;;2.85;;
34924;SDS011;21130;51.728;8.748;2023-02-28T13:10:10;2.72;;;2.50;;
34924;SDS011;21130;51.728;8.748;2023-02-28T13:12:38;2.55;;;2.17;;
34924;SDS011;21130;51.728;8.748;2023-02-28T13:15:16;3.80;;;2.38;;
34924;SDS011;21130;51.728;8.748;2023-02-28T13:17:48;2.78;;;2.45;;
34924;SDS011;21130;51.728;8.748;2023-02-28T13:20:17;3.88;;;2.47;;
34924;SDS011;21130;51.728;8.748;2023-02-28T13:22:45;2.40;;;2.20;;
34924;SDS011;21130;51.728;8.748;2023-02-28T13:31:32;2.47;;;2.20;;
34924;SDS011;21130;51.728;8.748;2023-02-28T13:34:25;3.28;;;2.53;;
34924;SDS011;21130;51.728;8.748;2023-02-28T13:36:51;5.13;;;2.30;;
34924;SDS011;21130;51.728;8.748;2023-02-28T13:39:59;2.65;;;2.40;;
34924;SDS011;21130;51.728;8.748;2023-02-28T13:42:52;3.85;;;2.30;;
34924;SDS011;21130;51.728;8.748;2023-02-28T13:45:25;3.92;;;2.53;;
34924;SDS011;21130;51.728;8.748;2023-02-28T13:47:57;3.63;;;2.40;;
34924;SDS011;21130;51.728;8.748;2023-02-28T13:50:27;2.65;;;2.45;;
34924;SDS011;21130;51.728;8.748;2023-02-28T13:53:11;3.47;;;2.60;;
34924;SDS011;21130;51.728;8.748;2023-02-28T13:56:03;2.80;;;2.50;;
34924;SDS011;21130;51.728;8.748;2023-02-28T13:58:39;3.17;;;2.70;;
34924;SDS011;21130;51.728;8.748;2023-02-28T14:01:15;3.72;;;2.20;;
34924;SDS011;21130;51.728;8.748;2023-02-28T14:04:01;2.90;;;2.40;;
34924;SDS011;21130;51.728;8.748;2023-02-28T14:06:45;3.28;;;2.40;;
34924;SDS011;21130;51.728;8.748;2023-02-28T14:09:19;2.50;;;2.30;;
34924;SDS011;21130;51.728;8.748;2023-02-28T14:11:52;3.15;;;2.42;;
34924;SDS011;21130;51.728;8.748;2023-02-28T14:17:24;3.72;;;2.90;;
34924;SDS011;21130;51.728;8.748;2023-02-28T14:19:53;5.43;;;3.30;;
34924;SDS011;21130;51.728;8.748;2023-02-28T14:22:26;3.97;;;2.60;;
34924;SDS011;21130;51.728;8.748;2023-02-28T14:25:16;3.60;;;2.17;;
34924;SDS011;21130;51.728;8.748;2023-02-28T14:27:49;3.15;;;2.67;;
34924;SDS011;21130;51.728;8.748;2023-02-28T14:30:26;2.67;;;2.40;;
34924;SDS011;21130;51.728;8.748;2023-02-28T14:33:12;2.63;;;2.42;;
34924;SDS011;21130;51.728;8.748;2023-02-28T14:35:54;3.40;;;2.70;;
34924;SDS011;21130;51.728;8.748;2023-02-28T14:38:29;3.88;;;2.80;;
34924;SDS011;21130;51.728;8.748;2023-02-28T14:41:00;3.75;;;2.40;;
34924;SDS011;21130;51.728;8.748;2023-02-28T14:43:31;4.38;;;3.05;;
34924;SDS011;21130;51.728;8.748;2023-02-28T14:45:58;3.60;;;2.45;;
34924;SDS011;21130;51.728;8.748;2023-02-28T14:48:27;3.20;;;2.53;;
34924;SDS011;21130;51.728;8.748;2023-02-28T14:50:56;3.88;;;2.30;;
34924;SDS011;21130;51.728;8.748;2023-02-28T14:53:25;2.95;;;2.50;;
34924;SDS011;21130;51.728;8.748;2023-02-28T14:55:54;3.67;;;2.50;;
34924;SDS011;21130;51.728;8.748;2023-02-28T14:58:22;2.97;;;2.63;;
34924;SDS011;21130;51.728;8.748;2023-02-28T15:00:51;2.88;;;2.47;;
34924;SDS011;21130;51.728;8.748;2023-02-28T15:03:21;3.33;;;2.70;;
34924;SDS011;21130;51.728;8.748;2023-02-28T15:05:52;2.72;;;2.47;;
34924;SDS011;21130;51.728;8.748;2023-02-28T15:08:21;6.78;;;5.45;;
34924;SDS011;21130;51.728;8.748;2023-02-28T15:10:51;4.43;;;2.85;;
34924;SDS011;21130;51.728;8.748;2023-02-28T15:13:21;3.90;;;2.78;;
34924;SDS011;21130;51.728;8.748;2023-02-28T15:15:49;4.47;;;2.90;;
34924;SDS011;21130;51.728;8.748;2023-02-28T15:18:24;3.45;;;3.13;;
34924;SDS011;21130;51.728;8.748;2023-02-28T15:20:55;3.08;;;2.75;;
34924;SDS011;21130;51.728;8.748;2023-02-28T15:23:25;3.58;;;2.75;;
34924;SDS011;21130;51.728;8.748;2023-02-28T15:25:52;2.80;;;2.60;;
34924;SDS011;21130;51.728;8.748;2023-02-28T15:28:20;3.35;;;2.65;;
34924;SDS011;21130;51.728;8.748;2023-02-28T15:30:53;3.80;;;3.00;;
34924;SDS011;21130;51.728;8.748;2023-02-28T15:33:22;3.90;;;2.90;;